sensor_id;sensor_type;location;lat;lon;timestamp;pressure;altitude;pressure_sealevel;temperature;humidity
68329;BME280;55182;56.864;60.554;2022-08-05T00:00:30;99236.03;;;13.49;100.00
68329;BME280;55182;56.864;60.554;2022-08-05T00:02:55;99229.84;;;13.44;100.00
68329;BME280;55182;56.864;60.554;2022-08-05T00:05:21;99230.72;;;13.41;100.00
68329;BME280;55182;56.864;60.554;2022-08-05T00:07:56;99229.84;;;13.39;100.00
68329;BME280;55182;56.864;60.554;2022-08-05T00:10:24;99230.72;;;13.40;100.00
68329;BME280;55182;56.864;60.554;2022-08-05T00:12:49;99228.97;;;13.42;100.00
68329;BME280;55182;56.864;60.554;2022-08-05T00:15:15;99228.16;;;13.53;100.00
68329;BME280;55182;56.864;60.554;2022-08-05T00:17:40;99225.59;;;13.64;100.00
68329;BME280;55182;56.864;60.554;2022-08-05T00:20:06;99228.31;;;13.73;100.00
68329;BME280;55182;56.864;60.554;2022-08-05T00:22:31;99232.69;;;13.77;100.00
68329;BME280;55182;56.864;60.554;2022-08-05T00:24:57;99229.25;;;13.85;100.00
68329;BME280;55182;56.864;60.554;2022-08-05T00:27:22;99231.03;;;13.92;100.00
68329;BME280;55182;56.864;60.554;2022-08-05T00:29:47;99228.41;;;13.92;100.00
68329;BME280;55182;56.864;60.554;2022-08-05T00:32:13;99229.28;;;13.91;100.00
68329;BME280;55182;56.864;60.554;2022-08-05T00:34:39;99232.78;;;13.90;100.00
68329;BME280;55182;56.864;60.554;2022-08-05T00:37:04;99232.75;;;13.87;100.00
68329;BME280;55182;56.864;60.554;2022-08-05T00:39:30;99230.09;;;13.84;100.00
68329;BME280;55182;56.864;60.554;2022-08-05T00:41:55;99230.97;;;13.79;100.00
68329;BME280;55182;56.864;60.554;2022-08-05T00:44:22;99230.94;;;13.73;100.00
68329;BME280;55182;56.864;60.554;2022-08-05T00:46:47;99230.94;;;13.73;100.00
68329;BME280;55182;56.864;60.554;2022-08-05T00:49:12;99229.16;;;13.72;100.00
68329;BME280;55182;56.864;60.554;2022-08-05T00:51:38;99230.00;;;13.65;100.00
68329;BME280;55182;56.864;60.554;2022-08-05T00:54:03;99230.84;;;13.60;100.00
68329;BME280;55182;56.864;60.554;2022-08-05T00:56:29;99234.34;;;13.60;100.00
68329;BME280;55182;56.864;60.554;2022-08-05T00:58:54;99233.50;;;13.66;100.00
68329;BME280;55182;56.864;60.554;2022-08-05T01:01:19;99232.69;;;13.77;100.00
68329;BME280;55182;56.864;60.554;2022-08-05T01:03:45;99232.78;;;13.90;100.00
68329;BME280;55182;56.864;60.554;2022-08-05T01:06:13;99231.91;;;13.94;100.00
68329;BME280;55182;56.864;60.554;2022-08-05T01:08:39;99227.56;;;13.96;100.00
68329;BME280;55182;56.864;60.554;2022-08-05T01:11:11;99222.31;;;14.02;100.00
68329;BME280;55182;56.864;60.554;2022-08-05T01:16:04;99228.50;;;14.16;100.00
68329;BME280;55182;56.864;60.554;2022-08-05T01:18:32;99230.28;;;14.23;100.00
68329;BME280;55182;56.864;60.554;2022-08-05T01:21:33;99222.41;;;14.26;100.00
68329;BME280;55182;56.864;60.554;2022-08-05T01:26:55;99231.22;;;14.38;99.38
68329;BME280;55182;56.864;60.554;2022-08-05T01:29:24;99221.56;;;14.44;99.13
68329;BME280;55182;56.864;60.554;2022-08-05T01:31:52;99224.25;;;14.52;98.45
68329;BME280;55182;56.864;60.554;2022-08-05T01:34:22;99222.50;;;14.57;98.61
68329;BME280;55182;56.864;60.554;2022-08-05T01:36:54;99225.16;;;14.62;98.11
68329;BME280;55182;56.864;60.554;2022-08-05T01:39:20;99227.81;;;14.63;98.21
68329;BME280;55182;56.864;60.554;2022-08-05T01:41:47;99226.06;;;14.68;97.54
68329;BME280;55182;56.864;60.554;2022-08-05T01:44:13;99228.72;;;14.73;97.58
68329;BME280;55182;56.864;60.554;2022-08-05T01:46:39;99221.69;;;14.78;96.90
68329;BME280;55182;56.864;60.554;2022-08-05T01:49:05;99227.84;;;14.84;96.50
68329;BME280;55182;56.864;60.554;2022-08-05T01:51:32;99225.22;;;14.88;95.93
68329;BME280;55182;56.864;60.554;2022-08-05T01:53:59;99226.13;;;14.93;96.23
68329;BME280;55182;56.864;60.554;2022-08-05T01:56:30;99231.41;;;14.99;95.92
68329;BME280;55182;56.864;60.554;2022-08-05T01:58:56;99226.09;;;15.02;96.12
68329;BME280;55182;56.864;60.554;2022-08-05T02:01:23;99225.25;;;15.04;96.30
68329;BME280;55182;56.864;60.554;2022-08-05T02:03:49;99225.22;;;15.07;96.49
68329;BME280;55182;56.864;60.554;2022-08-05T02:06:16;99226.13;;;15.13;96.24
68329;BME280;55182;56.864;60.554;2022-08-05T02:08:41;99219.09;;;15.16;95.51
68329;BME280;55182;56.864;60.554;2022-08-05T02:11:07;99227.00;;;15.22;95.83
68329;BME280;55182;56.864;60.554;2022-08-05T02:13:43;99226.13;;;15.26;95.59
68329;BME280;55182;56.864;60.554;2022-08-05T02:16:13;99226.09;;;15.31;95.42
68329;BME280;55182;56.864;60.554;2022-08-05T02:18:43;99228.75;;;15.37;94.87
68329;BME280;55182;56.864;60.554;2022-08-05T02:21:12;99232.28;;;15.41;93.82
68329;BME280;55182;56.864;60.554;2022-08-05T02:23:39;99233.16;;;15.49;93.19
68329;BME280;55182;56.864;60.554;2022-08-05T02:26:09;99230.47;;;15.59;91.46
68329;BME280;55182;56.864;60.554;2022-08-05T02:28:37;99235.78;;;15.70;91.46
68329;BME280;55182;56.864;60.554;2022-08-05T02:31:08;99227.00;;;15.77;91.42
68329;BME280;55182;56.864;60.554;2022-08-05T02:33:36;99233.13;;;15.82;91.36
68329;BME280;55182;56.864;60.554;2022-08-05T02:36:04;99230.47;;;15.87;90.87
68329;BME280;55182;56.864;60.554;2022-08-05T02:38:30;99235.75;;;15.95;91.28
68329;BME280;55182;56.864;60.554;2022-08-05T02:40:56;99236.63;;;16.00;91.13
68329;BME280;55182;56.864;60.554;2022-08-05T02:43:23;99228.69;;;16.01;91.48
68329;BME280;55182;56.864;60.554;2022-08-05T02:45:49;99244.53;;;16.06;91.27
68329;BME280;55182;56.864;60.554;2022-08-05T02:48:16;99244.50;;;16.12;90.54
68329;BME280;55182;56.864;60.554;2022-08-05T02:50:42;99241.84;;;16.18;90.05
68329;BME280;55182;56.864;60.554;2022-08-05T02:53:08;99232.09;;;16.25;89.82
68329;BME280;55182;56.864;60.554;2022-08-05T02:55:34;99246.19;;;16.31;89.84
68329;BME280;55182;56.864;60.554;2022-08-05T02:58:00;99239.13;;;16.36;89.39
68329;BME280;55182;56.864;60.554;2022-08-05T03:00:27;99234.66;;;16.44;89.05
68329;BME280;55182;56.864;60.554;2022-08-05T03:02:53;99246.09;;;16.50;89.48
68329;BME280;55182;56.864;60.554;2022-08-05T03:05:19;99241.69;;;16.52;87.83
68329;BME280;55182;56.864;60.554;2022-08-05T03:07:45;99245.22;;;16.57;87.77
68329;BME280;55182;56.864;60.554;2022-08-05T03:10:11;99251.31;;;16.62;88.40
68329;BME280;55182;56.864;60.554;2022-08-05T03:12:39;99248.69;;;16.65;87.63
68329;BME280;55182;56.864;60.554;2022-08-05T03:15:05;99253.97;;;16.71;86.19
68329;BME280;55182;56.864;60.554;2022-08-05T03:17:30;99254.81;;;16.79;84.92
68329;BME280;55182;56.864;60.554;2022-08-05T03:19:56;99262.72;;;16.85;84.47
68329;BME280;55182;56.864;60.554;2022-08-05T03:22:21;99269.69;;;16.95;84.81
68329;BME280;55182;56.864;60.554;2022-08-05T03:24:47;99261.72;;;17.00;84.45
68329;BME280;55182;56.864;60.554;2022-08-05T03:27:14;99259.97;;;17.02;84.84
68329;BME280;55182;56.864;60.554;2022-08-05T03:29:40;99261.69;;;17.08;82.96
68329;BME280;55182;56.864;60.554;2022-08-05T03:32:06;99258.00;;;17.24;80.81
68329;BME280;55182;56.864;60.554;2022-08-05T03:34:32;99257.00;;;17.40;80.48
68329;BME280;55182;56.864;60.554;2022-08-05T03:36:58;99255.09;;;17.56;80.30
68329;BME280;55182;56.864;60.554;2022-08-05T03:39:23;99254.09;;;17.68;79.25
68329;BME280;55182;56.864;60.554;2022-08-05T03:41:48;99258.47;;;17.75;80.38
68329;BME280;55182;56.864;60.554;2022-08-05T03:44:14;99247.91;;;17.73;79.74
68329;BME280;55182;56.864;60.554;2022-08-05T03:46:39;99249.66;;;17.76;78.90
68329;BME280;55182;56.864;60.554;2022-08-05T03:49:05;99253.09;;;17.84;79.14
68329;BME280;55182;56.864;60.554;2022-08-05T03:51:31;99254.84;;;17.88;77.99
68329;BME280;55182;56.864;60.554;2022-08-05T03:54:02;99249.47;;;17.94;78.13
68329;BME280;55182;56.864;60.554;2022-08-05T03:56:34;99245.81;;;18.05;77.88
68329;BME280;55182;56.864;60.554;2022-08-05T03:59:02;99248.34;;;18.15;76.24
68329;BME280;55182;56.864;60.554;2022-08-05T04:01:27;99247.28;;;18.28;76.47
68329;BME280;55182;56.864;60.554;2022-08-05T04:03:54;99249.78;;;18.41;75.85
68329;BME280;55182;56.864;60.554;2022-08-05T04:06:20;99238.19;;;18.49;75.27
68329;BME280;55182;56.864;60.554;2022-08-05T04:08:46;99240.69;;;18.60;74.02
68329;BME280;55182;56.864;60.554;2022-08-05T04:11:12;99246.75;;;18.73;73.27
68329;BME280;55182;56.864;60.554;2022-08-05T04:13:38;99242.06;;;18.90;71.79
68329;BME280;55182;56.864;60.554;2022-08-05T04:16:04;99243.59;;;19.06;71.11
68329;BME280;55182;56.864;60.554;2022-08-05T04:18:30;99243.41;;;19.19;70.06
68329;BME280;55182;56.864;60.554;2022-08-05T04:20:56;99246.56;;;19.42;69.00
68329;BME280;55182;56.864;60.554;2022-08-05T04:23:22;99241.88;;;19.59;68.10
68329;BME280;55182;56.864;60.554;2022-08-05T04:25:48;99238.94;;;19.73;67.90
68329;BME280;55182;56.864;60.554;2022-08-05T04:28:13;99231.50;;;19.92;66.77
68329;BME280;55182;56.864;60.554;2022-08-05T04:30:39;99231.09;;;20.12;66.14
68329;BME280;55182;56.864;60.554;2022-08-05T04:33:04;99234.47;;;20.22;66.33
68329;BME280;55182;56.864;60.554;2022-08-05T04:35:30;99232.44;;;20.34;66.20
68329;BME280;55182;56.864;60.554;2022-08-05T04:37:55;99229.53;;;20.45;65.41
68329;BME280;55182;56.864;60.554;2022-08-05T04:40:20;99232.06;;;20.54;64.95
68329;BME280;55182;56.864;60.554;2022-08-05T04:42:46;99225.56;;;20.66;64.38
68329;BME280;55182;56.864;60.554;2022-08-05T04:45:11;99223.50;;;20.79;63.74
68329;BME280;55182;56.864;60.554;2022-08-05T04:47:37;99226.84;;;20.87;63.69
68329;BME280;55182;56.864;60.554;2022-08-05T04:50:02;99223.69;;;21.08;59.80
68329;BME280;55182;56.864;60.554;2022-08-05T04:52:28;99230.34;;;21.29;59.05
68329;BME280;55182;56.864;60.554;2022-08-05T04:54:53;99225.41;;;21.48;57.69
68329;BME280;55182;56.864;60.554;2022-08-05T04:57:19;99223.16;;;21.65;56.52
68329;BME280;55182;56.864;60.554;2022-08-05T04:59:44;99223.00;;;21.72;55.81
68329;BME280;55182;56.864;60.554;2022-08-05T05:02:09;99225.50;;;21.78;55.61
68329;BME280;55182;56.864;60.554;2022-08-05T05:04:35;99231.69;;;21.80;59.77
68329;BME280;55182;56.864;60.554;2022-08-05T05:07:00;99227.19;;;21.82;59.72
68329;BME280;55182;56.864;60.554;2022-08-05T05:09:26;99219.94;;;21.87;60.90
68329;BME280;55182;56.864;60.554;2022-08-05T05:11:51;99224.19;;;21.94;60.05
68329;BME280;55182;56.864;60.554;2022-08-05T05:14:16;99220.44;;;22.01;60.36
68329;BME280;55182;56.864;60.554;2022-08-05T05:16:42;99222.00;;;22.10;58.72
68329;BME280;55182;56.864;60.554;2022-08-05T05:19:07;99220.03;;;22.16;57.89
68329;BME280;55182;56.864;60.554;2022-08-05T05:21:32;99211.00;;;22.20;57.77
68329;BME280;55182;56.864;60.554;2022-08-05T05:23:58;99219.81;;;22.24;54.93
68329;BME280;55182;56.864;60.554;2022-08-05T05:26:23;99213.38;;;22.31;56.10
68329;BME280;55182;56.864;60.554;2022-08-05T05:28:49;99215.75;;;22.42;56.13
68329;BME280;55182;56.864;60.554;2022-08-05T05:31:14;99215.44;;;22.51;53.62
68329;BME280;55182;56.864;60.554;2022-08-05T05:33:40;99224.00;;;22.62;53.28
68329;BME280;55182;56.864;60.554;2022-08-05T05:36:05;99210.38;;;22.71;53.91
68329;BME280;55182;56.864;60.554;2022-08-05T05:38:30;99208.25;;;22.83;47.78
68329;BME280;55182;56.864;60.554;2022-08-05T05:40:56;99211.22;;;23.01;48.82
68329;BME280;55182;56.864;60.554;2022-08-05T05:43:21;99209.88;;;23.16;47.81
68329;BME280;55182;56.864;60.554;2022-08-05T05:45:47;99201.44;;;23.28;48.32
68329;BME280;55182;56.864;60.554;2022-08-05T05:48:12;99209.91;;;23.41;48.09
68329;BME280;55182;56.864;60.554;2022-08-05T05:50:38;99207.75;;;23.52;47.52
68329;BME280;55182;56.864;60.554;2022-08-05T05:53:03;99203.91;;;23.61;47.91
68329;BME280;55182;56.864;60.554;2022-08-05T05:55:29;99208.28;;;23.64;47.45
68329;BME280;55182;56.864;60.554;2022-08-05T05:57:54;99204.66;;;23.66;49.07
68329;BME280;55182;56.864;60.554;2022-08-05T06:00:20;99207.25;;;23.68;47.76
68329;BME280;55182;56.864;60.554;2022-08-05T06:02:45;99200.91;;;23.70;46.79
68329;BME280;55182;56.864;60.554;2022-08-05T06:05:11;99199.06;;;23.72;46.48
68329;BME280;55182;56.864;60.554;2022-08-05T06:07:37;99201.69;;;23.74;46.67
68329;BME280;55182;56.864;60.554;2022-08-05T06:10:03;99201.47;;;23.80;47.20
68329;BME280;55182;56.864;60.554;2022-08-05T06:12:29;99202.09;;;23.88;47.16
68329;BME280;55182;56.864;60.554;2022-08-05T06:14:54;99207.16;;;23.96;46.46
68329;BME280;55182;56.864;60.554;2022-08-05T06:17:20;99197.97;;;24.03;46.85
68329;BME280;55182;56.864;60.554;2022-08-05T06:19:45;99190.63;;;24.08;46.87
68329;BME280;55182;56.864;60.554;2022-08-05T06:22:11;99198.50;;;24.13;45.85
68329;BME280;55182;56.864;60.554;2022-08-05T06:24:40;99194.03;;;24.13;44.55
68329;BME280;55182;56.864;60.554;2022-08-05T06:27:06;99198.44;;;24.14;45.26
68329;BME280;55182;56.864;60.554;2022-08-05T06:29:31;99193.88;;;24.16;45.08
68329;BME280;55182;56.864;60.554;2022-08-05T06:31:57;99196.47;;;24.19;44.20
68329;BME280;55182;56.864;60.554;2022-08-05T06:34:22;99194.34;;;24.29;43.19
68329;BME280;55182;56.864;60.554;2022-08-05T06:36:48;99192.88;;;24.44;42.40
68329;BME280;55182;56.864;60.554;2022-08-05T06:39:13;99192.41;;;24.56;41.64
68329;BME280;55182;56.864;60.554;2022-08-05T06:41:38;99192.81;;;24.69;42.41
68329;BME280;55182;56.864;60.554;2022-08-05T06:44:04;99191.47;;;24.80;41.73
68329;BME280;55182;56.864;60.554;2022-08-05T06:46:29;99195.47;;;24.92;43.08
68329;BME280;55182;56.864;60.554;2022-08-05T06:48:55;99190.59;;;25.02;42.27
68329;BME280;55182;56.864;60.554;2022-08-05T06:51:20;99187.63;;;25.09;38.92
68329;BME280;55182;56.864;60.554;2022-08-05T06:53:46;99185.56;;;25.16;39.75
68329;BME280;55182;56.864;60.554;2022-08-05T06:56:11;99194.16;;;25.24;38.45
68329;BME280;55182;56.864;60.554;2022-08-05T06:58:37;99184.94;;;25.31;39.93
68329;BME280;55182;56.864;60.554;2022-08-05T07:01:03;99189.03;;;25.40;41.03
68329;BME280;55182;56.864;60.554;2022-08-05T07:03:29;99183.19;;;25.51;40.77
68329;BME280;55182;56.864;60.554;2022-08-05T07:05:54;99179.06;;;25.64;39.71
68329;BME280;55182;56.864;60.554;2022-08-05T07:08:20;99172.31;;;25.76;37.79
68329;BME280;55182;56.864;60.554;2022-08-05T07:10:45;99178.28;;;25.82;37.14
68329;BME280;55182;56.864;60.554;2022-08-05T07:13:11;99179.16;;;25.83;36.95
68329;BME280;55182;56.864;60.554;2022-08-05T07:15:36;99171.28;;;25.78;37.54
68329;BME280;55182;56.864;60.554;2022-08-05T07:18:02;99169.78;;;25.71;37.86
68329;BME280;55182;56.864;60.554;2022-08-05T07:20:27;99164.97;;;25.59;38.27
68329;BME280;55182;56.864;60.554;2022-08-05T07:22:52;99166.81;;;25.57;38.47
68329;BME280;55182;56.864;60.554;2022-08-05T07:25:18;99163.88;;;25.63;37.45
68329;BME280;55182;56.864;60.554;2022-08-05T07:27:43;99163.47;;;25.72;38.40
68329;BME280;55182;56.864;60.554;2022-08-05T07:30:09;99163.13;;;25.81;36.93
68329;BME280;55182;56.864;60.554;2022-08-05T07:32:35;99163.63;;;25.89;37.54
68329;BME280;55182;56.864;60.554;2022-08-05T07:35:00;99157.97;;;25.96;37.82
68329;BME280;55182;56.864;60.554;2022-08-05T07:37:25;99164.09;;;25.99;37.92
68329;BME280;55182;56.864;60.554;2022-08-05T07:39:51;99166.59;;;26.04;37.34
68329;BME280;55182;56.864;60.554;2022-08-05T07:42:16;99162.78;;;26.08;37.55
68329;BME280;55182;56.864;60.554;2022-08-05T07:44:42;99165.06;;;26.17;37.79
68329;BME280;55182;56.864;60.554;2022-08-05T07:47:10;99160.78;;;26.32;38.14
68329;BME280;55182;56.864;60.554;2022-08-05T07:49:35;99163.75;;;26.46;36.01
68329;BME280;55182;56.864;60.554;2022-08-05T07:52:01;99160.38;;;26.60;36.78
68329;BME280;55182;56.864;60.554;2022-08-05T07:54:26;99159.81;;;26.72;36.63
68329;BME280;55182;56.864;60.554;2022-08-05T07:56:51;99156.56;;;26.83;35.08
68329;BME280;55182;56.864;60.554;2022-08-05T07:59:17;99157.31;;;26.86;35.46
68329;BME280;55182;56.864;60.554;2022-08-05T08:01:42;99146.88;;;26.98;35.50
68329;BME280;55182;56.864;60.554;2022-08-05T08:04:08;99155.25;;;27.10;34.76
68329;BME280;55182;56.864;60.554;2022-08-05T08:06:33;99151.47;;;27.14;34.75
68329;BME280;55182;56.864;60.554;2022-08-05T08:08:58;99146.81;;;27.18;35.85
68329;BME280;55182;56.864;60.554;2022-08-05T08:11:24;99148.31;;;27.24;34.34
68329;BME280;55182;56.864;60.554;2022-08-05T08:13:49;99150.44;;;27.17;34.57
68329;BME280;55182;56.864;60.554;2022-08-05T08:16:17;99145.13;;;27.15;36.34
68329;BME280;55182;56.864;60.554;2022-08-05T08:18:42;99146.50;;;27.24;34.00
68329;BME280;55182;56.864;60.554;2022-08-05T08:21:08;99141.66;;;27.31;34.39
68329;BME280;55182;56.864;60.554;2022-08-05T08:23:33;99136.19;;;27.32;34.10
68329;BME280;55182;56.864;60.554;2022-08-05T08:25:59;99140.81;;;27.30;32.69
68329;BME280;55182;56.864;60.554;2022-08-05T08:28:24;99141.47;;;27.16;33.26
68329;BME280;55182;56.864;60.554;2022-08-05T08:30:49;99141.97;;;27.07;33.81
68329;BME280;55182;56.864;60.554;2022-08-05T08:33:15;99136.34;;;27.12;33.44
68329;BME280;55182;56.864;60.554;2022-08-05T08:35:40;99134.00;;;27.23;33.51
68329;BME280;55182;56.864;60.554;2022-08-05T08:38:06;99137.16;;;27.31;31.69
68329;BME280;55182;56.864;60.554;2022-08-05T08:40:32;99132.81;;;27.29;31.62
68329;BME280;55182;56.864;60.554;2022-08-05T08:42:57;99125.97;;;27.21;32.18
68329;BME280;55182;56.864;60.554;2022-08-05T08:45:23;99126.84;;;27.22;32.31
68329;BME280;55182;56.864;60.554;2022-08-05T08:47:49;99127.81;;;27.38;31.28
68329;BME280;55182;56.864;60.554;2022-08-05T08:50:15;99123.03;;;27.61;31.04
68329;BME280;55182;56.864;60.554;2022-08-05T08:52:41;99122.09;;;27.79;30.92
68329;BME280;55182;56.864;60.554;2022-08-05T08:55:10;99119.06;;;27.85;29.21
68329;BME280;55182;56.864;60.554;2022-08-05T08:57:35;99113.38;;;27.91;30.19
68329;BME280;55182;56.864;60.554;2022-08-05T09:00:01;99109.28;;;28.00;30.78
68329;BME280;55182;56.864;60.554;2022-08-05T09:02:27;99120.13;;;28.16;29.80
68329;BME280;55182;56.864;60.554;2022-08-05T09:04:53;99108.66;;;28.28;28.33
68329;BME280;55182;56.864;60.554;2022-08-05T09:07:18;99119.97;;;28.35;27.51
68329;BME280;55182;56.864;60.554;2022-08-05T09:09:43;99110.88;;;28.37;27.78
68329;BME280;55182;56.864;60.554;2022-08-05T09:12:09;99108.59;;;28.45;29.15
68329;BME280;55182;56.864;60.554;2022-08-05T09:14:35;99099.63;;;28.76;28.37
68329;BME280;55182;56.864;60.554;2022-08-05T09:17:02;99102.19;;;29.10;27.45
68329;BME280;55182;56.864;60.554;2022-08-05T09:19:28;99106.53;;;29.28;26.71
68329;BME280;55182;56.864;60.554;2022-08-05T09:21:53;99100.94;;;29.31;27.46
68329;BME280;55182;56.864;60.554;2022-08-05T09:24:18;99104.22;;;29.36;28.70
68329;BME280;55182;56.864;60.554;2022-08-05T09:26:51;99113.09;;;29.38;27.38
68329;BME280;55182;56.864;60.554;2022-08-05T09:29:16;99117.88;;;29.19;27.74
68329;BME280;55182;56.864;60.554;2022-08-05T09:31:42;99115.66;;;28.95;28.60
68329;BME280;55182;56.864;60.554;2022-08-05T09:34:07;99106.78;;;28.46;29.69
68329;BME280;55182;56.864;60.554;2022-08-05T09:36:39;99103.41;;;28.42;29.65
68329;BME280;55182;56.864;60.554;2022-08-05T09:39:07;99107.03;;;28.57;29.69
68329;BME280;55182;56.864;60.554;2022-08-05T09:41:33;99107.28;;;28.84;29.12
68329;BME280;55182;56.864;60.554;2022-08-05T09:43:58;99115.00;;;29.22;28.61
68329;BME280;55182;56.864;60.554;2022-08-05T09:46:28;99114.22;;;29.50;28.09
68329;BME280;55182;56.864;60.554;2022-08-05T09:48:57;99102.44;;;29.51;27.31
68329;BME280;55182;56.864;60.554;2022-08-05T09:51:29;99107.84;;;29.51;27.56
68329;BME280;55182;56.864;60.554;2022-08-05T09:53:55;99094.22;;;29.97;26.69
68329;BME280;55182;56.864;60.554;2022-08-05T09:56:28;99103.66;;;30.47;25.55
68329;BME280;55182;56.864;60.554;2022-08-05T09:59:00;99099.47;;;30.55;25.72
68329;BME280;55182;56.864;60.554;2022-08-05T10:01:26;99108.97;;;30.05;25.73
68329;BME280;55182;56.864;60.554;2022-08-05T10:04:04;99087.63;;;29.28;27.30
68329;BME280;55182;56.864;60.554;2022-08-05T10:06:30;99095.63;;;28.99;28.25
68329;BME280;55182;56.864;60.554;2022-08-05T10:09:12;99100.91;;;28.85;28.32
68329;BME280;55182;56.864;60.554;2022-08-05T10:11:39;99095.25;;;28.90;28.54
68329;BME280;55182;56.864;60.554;2022-08-05T10:14:20;99096.56;;;28.98;28.34
68329;BME280;55182;56.864;60.554;2022-08-05T10:16:46;99091.97;;;29.00;28.09
68329;BME280;55182;56.864;60.554;2022-08-05T10:19:11;99094.56;;;28.86;27.99
68329;BME280;55182;56.864;60.554;2022-08-05T10:21:37;99098.75;;;28.76;28.55
68329;BME280;55182;56.864;60.554;2022-08-05T10:24:03;99098.22;;;28.69;28.57
68329;BME280;55182;56.864;60.554;2022-08-05T10:26:28;99090.22;;;28.52;28.57
68329;BME280;55182;56.864;60.554;2022-08-05T10:28:54;99096.50;;;28.52;29.64
68329;BME280;55182;56.864;60.554;2022-08-05T10:31:19;99090.75;;;28.59;29.20
68329;BME280;55182;56.864;60.554;2022-08-05T10:33:45;99082.66;;;28.59;29.53
68329;BME280;55182;56.864;60.554;2022-08-05T10:36:10;99080.91;;;28.58;29.68
68329;BME280;55182;56.864;60.554;2022-08-05T10:38:35;99080.16;;;28.56;29.18
68329;BME280;55182;56.864;60.554;2022-08-05T10:41:05;99086.50;;;28.55;28.66
68329;BME280;55182;56.864;60.554;2022-08-05T10:43:34;99077.97;;;28.46;28.51
68329;BME280;55182;56.864;60.554;2022-08-05T10:46:02;99083.50;;;28.27;28.09
68329;BME280;55182;56.864;60.554;2022-08-05T10:48:28;99074.16;;;28.02;28.65
68329;BME280;55182;56.864;60.554;2022-08-05T10:51:01;99078.66;;;27.85;28.45
68329;BME280;55182;56.864;60.554;2022-08-05T10:56:25;99076.63;;;27.56;29.80
68329;BME280;55182;56.864;60.554;2022-08-05T11:04:21;99072.59;;;27.47;29.75
68329;BME280;55182;56.864;60.554;2022-08-05T11:09:21;99072.59;;;27.47;30.39
68329;BME280;55182;56.864;60.554;2022-08-05T11:11:50;99072.19;;;27.55;30.77
68329;BME280;55182;56.864;60.554;2022-08-05T11:14:29;99073.44;;;27.65;29.54
68329;BME280;55182;56.864;60.554;2022-08-05T11:19:45;99076.72;;;27.71;29.90
68329;BME280;55182;56.864;60.554;2022-08-05T11:27:39;99064.00;;;27.73;29.53
68329;BME280;55182;56.864;60.554;2022-08-05T11:30:04;99065.19;;;27.68;29.09
68329;BME280;55182;56.864;60.554;2022-08-05T11:32:30;99064.41;;;27.66;29.92
68329;BME280;55182;56.864;60.554;2022-08-05T11:34:55;99068.53;;;27.73;30.21
68329;BME280;55182;56.864;60.554;2022-08-05T11:40:05;99066.66;;;27.91;29.29
68329;BME280;55182;56.864;60.554;2022-08-05T11:42:31;99057.56;;;27.93;29.04
68329;BME280;55182;56.864;60.554;2022-08-05T11:45:01;99063.56;;;27.98;28.97
68329;BME280;55182;56.864;60.554;2022-08-05T11:47:27;99059.31;;;28.10;29.33
68329;BME280;55182;56.864;60.554;2022-08-05T11:49:56;99053.69;;;28.46;28.77
68329;BME280;55182;56.864;60.554;2022-08-05T11:52:22;99048.59;;;29.48;28.04
68329;BME280;55182;56.864;60.554;2022-08-05T11:54:49;99053.47;;;30.55;26.49
68329;BME280;55182;56.864;60.554;2022-08-05T11:57:15;99049.47;;;31.67;24.76
68329;BME280;55182;56.864;60.554;2022-08-05T11:59:41;99053.00;;;32.56;23.91
68329;BME280;55182;56.864;60.554;2022-08-05T12:02:06;99050.63;;;33.23;22.89
68329;BME280;55182;56.864;60.554;2022-08-05T12:04:45;99043.28;;;33.94;21.99
68329;BME280;55182;56.864;60.554;2022-08-05T12:07:11;99050.16;;;34.43;20.79
68329;BME280;55182;56.864;60.554;2022-08-05T12:09:41;99050.56;;;34.49;20.86
68329;BME280;55182;56.864;60.554;2022-08-05T12:12:07;99037.06;;;34.48;20.69
68329;BME280;55182;56.864;60.554;2022-08-05T12:14:39;99035.44;;;34.57;20.68
68329;BME280;55182;56.864;60.554;2022-08-05T12:19:39;99034.75;;;34.75;20.74
68329;BME280;55182;56.864;60.554;2022-08-05T12:22:05;99024.47;;;34.02;21.04
68329;BME280;55182;56.864;60.554;2022-08-05T12:24:30;99032.22;;;33.15;22.27
68329;BME280;55182;56.864;60.554;2022-08-05T12:26:56;99027.38;;;33.43;21.87
68329;BME280;55182;56.864;60.554;2022-08-05T12:29:22;99038.31;;;33.65;21.58
68329;BME280;55182;56.864;60.554;2022-08-05T12:31:51;99023.06;;;33.63;21.17
68329;BME280;55182;56.864;60.554;2022-08-05T12:34:18;99022.22;;;33.73;21.29
68329;BME280;55182;56.864;60.554;2022-08-05T12:36:44;99028.81;;;34.05;21.10
68329;BME280;55182;56.864;60.554;2022-08-05T12:39:10;99027.78;;;34.50;20.39
68329;BME280;55182;56.864;60.554;2022-08-05T12:41:36;99032.38;;;34.93;20.50
68329;BME280;55182;56.864;60.554;2022-08-05T12:44:03;99022.97;;;35.18;20.76
68329;BME280;55182;56.864;60.554;2022-08-05T12:46:30;99019.63;;;34.83;20.88
68329;BME280;55182;56.864;60.554;2022-08-05T12:48:57;99026.00;;;34.93;20.65
68329;BME280;55182;56.864;60.554;2022-08-05T12:51:23;99009.41;;;34.64;21.46
68329;BME280;55182;56.864;60.554;2022-08-05T12:53:48;99020.78;;;35.12;20.10
68329;BME280;55182;56.864;60.554;2022-08-05T12:56:23;99020.94;;;34.88;20.82
68329;BME280;55182;56.864;60.554;2022-08-05T13:01:32;99017.06;;;33.82;21.93
68329;BME280;55182;56.864;60.554;2022-08-05T13:03:59;99017.06;;;34.04;21.97
68329;BME280;55182;56.864;60.554;2022-08-05T13:06:24;99005.22;;;33.94;21.95
68329;BME280;55182;56.864;60.554;2022-08-05T13:08:50;99008.88;;;33.48;22.66
68329;BME280;55182;56.864;60.554;2022-08-05T13:11:16;98994.91;;;31.85;25.09
68329;BME280;55182;56.864;60.554;2022-08-05T13:13:41;99006.13;;;31.02;26.31
68329;BME280;55182;56.864;60.554;2022-08-05T13:16:13;99006.81;;;30.25;26.90